createdAt,value
2018-03-20T00:01:51.644Z,93069.08
2018-03-20T00:04:19.775Z,93066.38
2018-03-20T00:06:47.086Z,93062.52
2018-03-20T00:09:14.432Z,93063.28
2018-03-20T00:11:41.755Z,93057.05
2018-03-20T00:14:09.067Z,93065.97
2018-03-20T00:16:36.431Z,93062.84
2018-03-20T00:19:04.143Z,93062.30
2018-03-20T00:21:32.206Z,93069.42
2018-03-20T00:23:59.499Z,93066.62
2018-03-20T00:26:26.806Z,93068.09
2018-03-20T00:28:54.087Z,93067.84
2018-03-20T00:31:22.123Z,93074.31
2018-03-20T00:33:49.484Z,93078.41
2018-03-20T00:36:16.800Z,93077.75
2018-03-20T00:38:44.146Z,93071.99
2018-03-20T00:41:11.473Z,93076.89
2018-03-20T00:43:39.544Z,93080.05
2018-03-20T00:46:06.842Z,93081.59
2018-03-20T00:48:34.210Z,93078.11
2018-03-20T00:51:01.629Z,93082.02
2018-03-20T00:53:28.962Z,93077.81
2018-03-20T00:55:56.255Z,93081.03
2018-03-20T00:58:23.739Z,93085.27
2018-03-20T01:00:51.040Z,93083.41
2018-03-20T01:03:18.407Z,93085.67
2018-03-20T01:05:45.747Z,93087.27
2018-03-20T01:08:13.172Z,93088.37
2018-03-20T01:10:40.483Z,93082.71
2018-03-20T01:13:08.811Z,93087.56
2018-03-20T01:15:36.898Z,93086.61
2018-03-20T01:18:04.926Z,93095.65
2018-03-20T01:20:32.267Z,93084.30
2018-03-20T01:22:59.587Z,93085.70
2018-03-20T01:25:26.881Z,93082.83
2018-03-20T01:27:54.233Z,93084.98
2018-03-20T01:30:21.533Z,93082.61
2018-03-20T01:32:49.594Z,93078.98
2018-03-20T01:35:16.925Z,93081.31
2018-03-20T01:37:44.260Z,93077.63
2018-03-20T01:40:11.542Z,93080.77
2018-03-20T01:42:38.854Z,93080.30
2018-03-20T01:45:06.146Z,93088.59
2018-03-20T01:47:33.491Z,93081.83
2018-03-20T01:50:00.876Z,93083.23
2018-03-20T01:52:28.191Z,93087.00
2018-03-20T01:54:55.507Z,93074.76
2018-03-20T01:57:22.835Z,93077.66
2018-03-20T01:59:50.115Z,93077.95
2018-03-20T02:02:17.439Z,93070.72
2018-03-20T02:04:45.538Z,93075.28
2018-03-20T02:07:12.895Z,93079.33
2018-03-20T02:09:41.050Z,93072.45
2018-03-20T02:12:08.371Z,93069.73
2018-03-20T02:14:36.464Z,93077.73
2018-03-20T02:17:04.571Z,93071.97
2018-03-20T02:19:31.914Z,93078.32
2018-03-20T02:21:59.270Z,93080.77
2018-03-20T02:24:26.606Z,93077.27
2018-03-20T02:26:54.696Z,93081.07
2018-03-20T02:29:22.013Z,93080.27
2018-03-20T02:31:49.342Z,93077.75
2018-03-20T02:34:16.670Z,93086.68
2018-03-20T02:36:44.011Z,93084.09
2018-03-20T02:39:11.347Z,93087.55
2018-03-20T02:41:38.723Z,93096.83
2018-03-20T02:44:06.016Z,93093.94
2018-03-20T02:46:34.234Z,93094.09
2018-03-20T02:49:01.553Z,93094.41
2018-03-20T02:51:28.850Z,93103.55
2018-03-20T02:53:57.066Z,93094.94
2018-03-20T02:56:24.491Z,93095.81
2018-03-20T02:58:52.487Z,93097.06
2018-03-20T03:01:19.807Z,93092.99
2018-03-20T03:03:47.143Z,93093.75
2018-03-20T03:06:14.525Z,93102.83
2018-03-20T03:08:41.920Z,93102.16
2018-03-20T03:11:09.247Z,93109.28
2018-03-20T03:13:36.622Z,93114.00
2018-03-20T03:16:04.729Z,93113.22
2018-03-20T03:18:32.183Z,93118.71
2018-03-20T03:20:59.479Z,93122.84
2018-03-20T03:23:26.814Z,93125.88
2018-03-20T03:25:54.169Z,93126.36
2018-03-20T03:28:21.508Z,93129.83
2018-03-20T03:30:49.028Z,93138.98
2018-03-20T03:33:16.340Z,93146.92
2018-03-20T03:35:43.678Z,93148.66
2018-03-20T03:38:10.997Z,93156.45
2018-03-20T03:40:38.329Z,93159.27
2018-03-20T03:43:05.699Z,93155.86
2018-03-20T03:45:33.019Z,93161.02
2018-03-20T03:48:00.332Z,93166.69
2018-03-20T03:50:28.761Z,93171.87
2018-03-20T03:52:56.122Z,93179.34
2018-03-20T03:55:23.447Z,93179.17
2018-03-20T03:57:50.779Z,93171.58
2018-03-20T04:00:18.099Z,93183.00
2018-03-20T04:02:46.182Z,93180.03
2018-03-20T04:05:13.486Z,93182.72
2018-03-20T04:07:40.835Z,93175.30
2018-03-20T04:10:08.182Z,93180.81
2018-03-20T04:12:35.538Z,93180.11
2018-03-20T04:15:02.987Z,93183.30
2018-03-20T04:17:30.303Z,93176.41
2018-03-20T04:20:06.029Z,93179.30
2018-03-20T04:22:36.497Z,93175.47
2018-03-20T04:25:04.154Z,93180.17
2018-03-20T04:27:32.203Z,93184.31
2018-03-20T04:30:00.276Z,93184.83
2018-03-20T04:32:27.647Z,93188.20
2018-03-20T04:34:54.959Z,93186.47
2018-03-20T04:37:22.294Z,93198.33
2018-03-20T04:39:49.586Z,93197.16
2018-03-20T04:42:17.248Z,93199.60
2018-03-20T04:44:44.574Z,93202.92
2018-03-20T04:47:11.861Z,93205.13
2018-03-20T04:49:39.971Z,93206.10
2018-03-20T04:52:07.261Z,93210.75
2018-03-20T04:54:34.570Z,93215.56
2018-03-20T04:57:02.283Z,93213.42
2018-03-20T04:59:29.582Z,93224.66
2018-03-20T05:01:56.898Z,93227.89
2018-03-20T05:04:24.680Z,93227.20
2018-03-20T05:06:51.998Z,93226.70
2018-03-20T05:09:19.297Z,93229.92
2018-03-20T05:11:46.719Z,93236.30
2018-03-20T05:14:14.063Z,93236.73
2018-03-20T05:16:41.479Z,93250.53
2018-03-20T05:19:15.002Z,93248.20
2018-03-20T05:21:49.180Z,93248.42
2018-03-20T05:24:16.778Z,93257.95
2018-03-20T05:26:44.138Z,93264.70
2018-03-20T05:29:11.519Z,93266.98
2018-03-20T05:31:38.912Z,93267.81
2018-03-20T05:34:06.288Z,93269.31
2018-03-20T05:36:33.635Z,93267.73
2018-03-20T05:39:01.013Z,93275.22
2018-03-20T05:41:29.355Z,93264.93
2018-03-20T05:43:56.720Z,93261.98
2018-03-20T05:46:30.150Z,93272.95
2018-03-20T06:02:19.936Z,93276.02
2018-03-20T06:04:47.275Z,93278.36
2018-03-20T06:07:14.703Z,93280.15
2018-03-20T06:09:42.182Z,93291.55
2018-03-20T06:12:09.542Z,93293.45
2018-03-20T06:14:36.878Z,93291.88
2018-03-20T06:17:04.232Z,93294.53
2018-03-20T06:19:31.589Z,93294.94
2018-03-20T06:21:58.919Z,93296.90
2018-03-20T06:24:26.271Z,93301.86
2018-03-20T06:26:53.603Z,93312.71
2018-03-20T06:29:20.984Z,93306.91
2018-03-20T06:31:48.307Z,93303.70
2018-03-20T06:34:15.682Z,93310.85
2018-03-20T06:36:43.803Z,93322.13
2018-03-20T06:39:11.182Z,93319.30
2018-03-20T06:41:38.505Z,93331.52
2018-03-20T06:44:05.960Z,93339.44
2018-03-20T06:46:33.279Z,93339.48
2018-03-20T06:49:00.630Z,93345.38
2018-03-20T06:51:28.018Z,93350.00
2018-03-20T06:53:57.554Z,93347.11
2018-03-20T06:56:25.038Z,93347.14
2018-03-20T06:58:52.365Z,93348.11
2018-03-20T07:01:19.683Z,93347.81
2018-03-20T07:03:47.091Z,93355.74
2018-03-20T07:06:14.577Z,93364.68
2018-03-20T07:08:41.844Z,93369.30
2018-03-20T07:11:09.226Z,93373.59
2018-03-20T07:13:36.564Z,93375.29
2018-03-20T07:16:05.179Z,93375.34
2018-03-20T07:18:32.606Z,93378.84
2018-03-20T07:20:59.936Z,93379.21
2018-03-20T07:23:27.263Z,93383.66
2018-03-20T07:25:54.564Z,93384.59
2018-03-20T07:28:21.979Z,93390.61
2018-03-20T07:30:49.319Z,93389.34
2018-03-20T07:33:16.666Z,93397.02
2018-03-20T07:35:44.008Z,93396.89
2018-03-20T07:38:11.307Z,93396.21
2018-03-20T07:40:38.650Z,93402.80
2018-03-20T07:43:05.943Z,93401.41
2018-03-20T07:45:33.287Z,93411.34
2018-03-20T07:48:00.674Z,93409.51
2018-03-20T07:50:28.008Z,93412.28
2018-03-20T07:52:55.384Z,93414.20
2018-03-20T07:55:22.976Z,93420.35
2018-03-20T07:57:50.302Z,93415.22
2018-03-20T08:00:17.605Z,93425.48
2018-03-20T08:02:45.148Z,93419.99
2018-03-20T08:05:12.495Z,93420.95
2018-03-20T08:07:39.836Z,93425.95
2018-03-20T08:10:07.172Z,93432.38
2018-03-20T08:12:34.793Z,93434.28
2018-03-20T08:15:02.199Z,93428.48
2018-03-20T08:17:30.071Z,93432.20
2018-03-20T08:19:57.417Z,93432.34
2018-03-20T08:22:24.763Z,93432.63
2018-03-20T08:24:52.533Z,93437.05
2018-03-20T08:27:19.886Z,93430.48
2018-03-20T08:29:47.203Z,93434.36
2018-03-20T08:32:14.539Z,93428.62
2018-03-20T08:34:41.861Z,93436.89
2018-03-20T08:37:09.960Z,93437.03
2018-03-20T08:39:38.187Z,93427.98
2018-03-20T08:42:04.818Z,93428.55
2018-03-20T08:44:31.416Z,93431.44
2018-03-20T08:46:58.790Z,93430.83
2018-03-20T08:49:25.430Z,93429.86
2018-03-20T08:51:52.052Z,93426.22
2018-03-20T08:54:18.652Z,93422.59
2018-03-20T08:56:45.472Z,93432.42
2018-03-20T08:59:12.261Z,93438.28
2018-03-20T09:01:39.584Z,93441.55
2018-03-20T09:04:06.248Z,93443.01
2018-03-20T09:06:32.858Z,93446.45
2018-03-20T09:08:59.422Z,93444.80
2018-03-20T09:11:27.049Z,93440.13
2018-03-20T09:13:53.847Z,93449.72
2018-03-20T09:16:20.399Z,93447.47
2018-03-20T09:18:46.995Z,93442.71
2018-03-20T09:21:13.583Z,93453.08
2018-03-20T09:23:40.271Z,93444.86
2018-03-20T09:26:06.871Z,93456.49
2018-03-20T09:28:33.463Z,93453.05
2018-03-20T09:31:01.277Z,93451.58
2018-03-20T09:33:27.915Z,93444.61
2018-03-20T09:35:54.503Z,93446.63
2018-03-20T09:38:21.090Z,93457.27
2018-03-20T09:40:47.657Z,93452.08
2018-03-20T09:43:14.961Z,93450.75
2018-03-20T09:45:42.328Z,93450.98
2018-03-20T09:48:09.275Z,93463.23
2018-03-20T09:50:36.230Z,93466.01
2018-03-20T09:53:02.810Z,93466.30
2018-03-20T09:55:30.141Z,93469.69
2018-03-20T09:57:57.479Z,93465.28
2018-03-20T10:00:26.565Z,93467.03
2018-03-20T10:02:53.146Z,93468.78
2018-03-20T10:05:20.455Z,93465.41
2018-03-20T10:07:47.807Z,93467.07
2018-03-20T10:10:14.842Z,93467.44
2018-03-20T10:12:41.811Z,93468.24
2018-03-20T10:15:08.755Z,93468.82
2018-03-20T10:17:35.727Z,93472.36
2018-03-20T10:20:02.761Z,93476.44
2018-03-20T10:22:29.830Z,93470.52
2018-03-20T10:24:56.835Z,93475.80
2018-03-20T10:27:23.773Z,93484.95
2018-03-20T10:29:50.754Z,93486.19
2018-03-20T10:32:17.735Z,93487.92
2018-03-20T10:34:44.301Z,93490.19
2018-03-20T10:37:10.935Z,93488.53
2018-03-20T10:39:37.599Z,93491.58
2018-03-20T10:42:04.931Z,93487.63
2018-03-20T10:44:32.252Z,93487.38
2018-03-20T10:46:58.910Z,93493.02
2018-03-20T10:49:26.304Z,93492.22
2018-03-20T10:51:53.658Z,93495.86
2018-03-20T10:54:20.249Z,93493.50
2018-03-20T10:56:47.368Z,93489.20
2018-03-20T10:59:15.268Z,93487.94
2018-03-20T11:01:45.568Z,93489.58
2018-03-20T11:04:12.942Z,93490.00
2018-03-20T11:06:40.336Z,93491.45
2018-03-20T11:09:07.666Z,93487.84
2018-03-20T11:11:34.963Z,93483.39
2018-03-20T11:14:01.948Z,93487.67
2018-03-20T11:16:28.918Z,93476.93
2018-03-20T11:18:55.890Z,93472.56
2018-03-20T11:21:23.060Z,93475.38
2018-03-20T11:23:49.651Z,93472.81
2018-03-20T11:26:16.992Z,93477.98
2018-03-20T11:28:43.619Z,93484.17
2018-03-20T11:31:10.326Z,93489.19
2018-03-20T11:33:36.969Z,93494.88
2018-03-20T11:36:03.571Z,93500.50
2018-03-20T11:38:30.164Z,93508.70
2018-03-20T11:40:56.776Z,93504.55
2018-03-20T11:43:23.379Z,93508.55
2018-03-20T11:45:49.997Z,93504.55
2018-03-20T11:48:17.332Z,93511.18
2018-03-20T11:50:44.163Z,93508.27
2018-03-20T11:53:11.693Z,93511.42
2018-03-20T11:55:39.022Z,93513.27
2018-03-20T11:58:06.649Z,93503.33
2018-03-20T12:00:33.322Z,93505.94
2018-03-20T12:02:59.951Z,93504.89
2018-03-20T12:05:26.567Z,93498.38
2018-03-20T12:07:54.135Z,93510.98
2018-03-20T12:10:20.796Z,93515.95
2018-03-20T12:12:48.143Z,93523.44
2018-03-20T12:15:15.612Z,93512.56
2018-03-20T12:17:42.209Z,93518.85
2018-03-20T12:20:08.807Z,93523.73
2018-03-20T12:22:35.810Z,93522.30
2018-03-20T12:25:03.163Z,93524.42
2018-03-20T12:27:29.739Z,93519.45
2018-03-20T12:29:56.378Z,93525.33
2018-03-20T12:32:23.020Z,93524.77
2018-03-20T12:34:49.771Z,93526.02
2018-03-20T12:37:16.360Z,93527.31
2018-03-20T12:39:43.733Z,93534.47
2018-03-20T12:42:11.078Z,93540.25
2018-03-20T12:44:37.694Z,93543.11
2018-03-20T12:47:05.425Z,93548.56
2018-03-20T12:49:32.050Z,93546.26
2018-03-20T12:51:58.679Z,93548.91
2018-03-20T12:54:25.287Z,93554.69
2018-03-20T12:56:52.206Z,93563.22
2018-03-20T12:59:18.787Z,93547.41
2018-03-20T13:01:45.410Z,93554.33
2018-03-20T13:04:12.180Z,93556.84
2018-03-20T13:06:38.755Z,93553.59
2018-03-20T13:09:06.088Z,93550.81
2018-03-20T13:11:32.734Z,93555.95
2018-03-20T13:13:59.317Z,93549.17
2018-03-20T13:16:26.308Z,93558.34
2018-03-20T13:18:52.923Z,93560.69
2018-03-20T13:21:19.526Z,93563.44
2018-03-20T13:23:46.893Z,93566.08
2018-03-20T13:26:14.271Z,93566.70
2018-03-20T13:28:40.925Z,93570.98
2018-03-20T13:31:07.587Z,93568.13
2018-03-20T13:33:34.185Z,93576.37
2018-03-20T13:36:01.570Z,93580.08
2018-03-20T13:38:29.026Z,93587.38
2018-03-20T13:40:55.650Z,93591.71
2018-03-20T13:43:22.314Z,93586.27
2018-03-20T13:45:49.004Z,93585.80
2018-03-20T13:48:15.635Z,93595.50
2018-03-20T13:50:42.240Z,93604.45
2018-03-20T13:53:09.802Z,93607.75
2018-03-20T13:55:36.559Z,93612.88
2018-03-20T13:58:03.239Z,93606.17
2018-03-20T14:00:29.866Z,93622.50
2018-03-20T14:02:56.530Z,93621.95
2018-03-20T14:05:23.139Z,93628.75
2018-03-20T14:07:49.722Z,93618.20
2018-03-20T14:10:17.292Z,93625.84
2018-03-20T14:12:43.914Z,93636.63
2018-03-20T14:15:10.536Z,93638.66
2018-03-20T14:17:37.155Z,93645.70
2018-03-20T14:20:03.810Z,93648.02
2018-03-20T14:22:30.408Z,93645.66
2018-03-20T14:24:57.103Z,93651.69
2018-03-20T14:27:23.727Z,93650.98
2018-03-20T14:29:50.667Z,93655.09
2018-03-20T14:32:17.332Z,93655.64
2018-03-20T14:34:43.948Z,93656.45
2018-03-20T14:37:10.586Z,93658.02
2018-03-20T14:39:37.178Z,93669.48
2018-03-20T14:42:03.826Z,93674.83
2018-03-20T14:44:30.427Z,93675.64
2018-03-20T14:46:57.786Z,93695.28
2018-03-20T14:49:25.162Z,93700.11
2018-03-20T14:51:52.681Z,93703.05
2018-03-20T14:54:19.948Z,93714.80
2018-03-20T14:56:46.571Z,93717.88
2018-03-20T14:59:14.883Z,93723.70
2018-03-20T15:01:41.525Z,93724.65
2018-03-20T15:04:08.099Z,93726.70
2018-03-20T15:06:34.723Z,93734.56
2018-03-20T15:09:01.320Z,93737.14
2018-03-20T15:11:28.004Z,93740.55
2018-03-20T15:13:55.294Z,93745.66
2018-03-20T15:16:22.450Z,93748.47
2018-03-20T15:18:49.085Z,93737.22
2018-03-20T15:21:15.787Z,93744.83
2018-03-20T15:23:42.370Z,93745.53
2018-03-20T15:26:10.023Z,93752.58
2018-03-20T15:28:36.665Z,93753.23
2018-03-20T15:31:04.097Z,93757.33
2018-03-20T15:33:30.747Z,93761.84
2018-03-20T15:35:57.343Z,93763.19
2018-03-20T15:38:23.974Z,93763.25
2018-03-20T15:40:50.636Z,93760.02
2018-03-20T15:43:17.243Z,93773.15
2018-03-20T15:45:43.904Z,93771.83
2018-03-20T15:48:10.536Z,93769.91
2018-03-20T15:50:37.132Z,93777.84
2018-03-20T15:53:05.437Z,93781.41
2018-03-20T15:55:32.016Z,93783.40
2018-03-20T15:57:58.617Z,93785.06
2018-03-20T16:00:25.246Z,93789.20
2018-03-20T16:02:51.941Z,93793.36
2018-03-20T16:05:18.543Z,93795.81
2018-03-20T16:07:45.162Z,93797.06
2018-03-20T16:10:11.915Z,93800.52
2018-03-20T16:12:38.517Z,93811.67
2018-03-20T16:15:05.174Z,93816.02
2018-03-20T16:17:31.947Z,93823.95
2018-03-20T16:19:58.535Z,93823.94
2018-03-20T16:22:25.182Z,93833.31
2018-03-20T16:24:51.792Z,93835.41
2018-03-20T16:27:18.377Z,93832.63
2018-03-20T16:29:45.014Z,93844.08
2018-03-20T16:32:11.641Z,93843.58
2018-03-20T16:34:38.451Z,93846.77
2018-03-20T16:37:05.065Z,93857.30
2018-03-20T16:39:31.712Z,93859.41
2018-03-20T16:41:58.734Z,93860.59
2018-03-20T16:44:25.366Z,93863.41
2018-03-20T16:46:51.980Z,93869.85
2018-03-20T16:49:18.587Z,93867.91
2018-03-20T16:51:45.927Z,93875.85
2018-03-20T16:54:12.634Z,93879.05
2018-03-20T16:56:39.279Z,93882.05
2018-03-20T16:59:05.957Z,93888.23
2018-03-20T17:01:32.556Z,93893.35
2018-03-20T17:03:59.200Z,93896.98
2018-03-20T17:06:26.902Z,93896.42
2018-03-20T17:08:54.254Z,93908.47
2018-03-20T17:11:20.927Z,93911.13
2018-03-20T17:13:47.577Z,93907.39
2018-03-20T17:16:14.522Z,93914.31
2018-03-20T17:18:41.187Z,93912.08
2018-03-20T17:21:07.876Z,93912.31
2018-03-20T17:23:34.503Z,93920.66
2018-03-20T17:26:01.689Z,93909.25
2018-03-20T17:28:28.544Z,93921.86
2018-03-20T17:30:55.909Z,93915.01
2018-03-20T17:33:23.231Z,93928.20
2018-03-20T17:35:50.874Z,93928.73
2018-03-20T17:38:17.464Z,93935.83
2018-03-20T17:40:44.071Z,93940.86
2018-03-20T17:43:11.236Z,93943.69
2018-03-20T17:45:45.048Z,93942.45
2018-03-20T17:48:11.797Z,93948.38
2018-03-20T17:50:39.194Z,93951.43
2018-03-20T17:53:05.799Z,93947.44
2018-03-20T17:55:33.140Z,93962.08
2018-03-20T17:57:59.782Z,93956.06
2018-03-20T18:00:26.451Z,93963.97
2018-03-20T18:02:53.433Z,93967.42
2018-03-20T18:05:20.027Z,93963.62
2018-03-20T18:07:47.366Z,93974.98
2018-03-20T18:10:13.981Z,93977.48
2018-03-20T18:12:40.675Z,93985.90
2018-03-20T18:15:07.496Z,93990.66
2018-03-20T18:17:35.074Z,93988.27
2018-03-20T18:20:01.759Z,94001.84
2018-03-20T18:22:29.265Z,93995.14
2018-03-20T18:24:56.374Z,94004.13
2018-03-20T18:27:23.698Z,94010.69
2018-03-20T18:29:50.354Z,94010.84
2018-03-20T18:32:17.359Z,94007.83
2018-03-20T18:34:44.213Z,94019.47
2018-03-20T18:37:10.831Z,94020.75
2018-03-20T18:39:37.428Z,94033.41
2018-03-20T18:42:04.072Z,94041.25
2018-03-20T18:44:30.696Z,94035.75
2018-03-20T18:46:57.283Z,94040.02
2018-03-20T18:49:23.929Z,94048.56
2018-03-20T18:51:50.525Z,94052.64
2018-03-20T18:54:17.845Z,94056.59
2018-03-20T18:56:44.500Z,94057.73
2018-03-20T18:59:11.162Z,94064.77
2018-03-20T19:01:38.628Z,94057.38
2018-03-20T19:04:05.316Z,94066.73
2018-03-20T19:06:31.983Z,94068.22
2018-03-20T19:08:58.681Z,94071.20
2018-03-20T19:11:25.739Z,94075.94
2018-03-20T19:13:52.353Z,94077.03
2018-03-20T19:16:18.987Z,94081.45
2018-03-20T19:18:45.617Z,94082.59
2018-03-20T19:21:12.235Z,94087.16
2018-03-20T19:23:39.637Z,94090.14
2018-03-20T19:26:07.970Z,94088.81
2018-03-20T19:28:34.575Z,94094.78
2018-03-20T19:31:01.873Z,94095.46
2018-03-20T19:33:28.497Z,94103.73
2018-03-20T19:35:55.269Z,94100.28
2018-03-20T19:38:21.873Z,94100.55
2018-03-20T19:40:48.471Z,94107.40
2018-03-20T19:43:15.095Z,94114.30
2018-03-20T19:45:41.813Z,94116.93
2018-03-20T19:48:08.428Z,94117.74
2018-03-20T19:50:35.031Z,94127.98
2018-03-20T19:53:01.728Z,94119.59
2018-03-20T19:55:28.340Z,94132.52
2018-03-20T19:57:55.035Z,94126.59
2018-03-20T20:00:21.680Z,94130.50
2018-03-20T20:02:48.294Z,94138.29
2018-03-20T20:05:14.986Z,94142.09
2018-03-20T20:07:41.580Z,94146.25
2018-03-20T20:10:08.207Z,94144.77
2018-03-20T20:12:34.951Z,94142.80
2018-03-20T20:15:01.535Z,94151.66
2018-03-20T20:17:28.186Z,94157.22
2018-03-20T20:19:54.840Z,94165.81
2018-03-20T20:22:21.494Z,94165.97
2018-03-20T20:24:48.154Z,94166.71
2018-03-20T20:27:15.083Z,94167.37
2018-03-20T20:29:41.743Z,94173.80
2018-03-20T20:32:08.346Z,94171.63
2018-03-20T20:34:34.995Z,94169.27
2018-03-20T20:37:01.607Z,94173.91
2018-03-20T20:39:28.251Z,94179.52
2018-03-20T20:41:54.925Z,94171.53
2018-03-20T20:44:21.696Z,94171.06
2018-03-20T20:46:48.390Z,94173.80
2018-03-20T20:49:15.045Z,94176.00
2018-03-20T20:51:41.662Z,94180.17
2018-03-20T20:54:08.278Z,94185.36
2018-03-20T20:56:34.937Z,94175.29
2018-03-20T20:59:01.568Z,94182.33
2018-03-20T21:01:28.179Z,94187.70
2018-03-20T21:03:54.825Z,94187.20
2018-03-20T21:06:21.572Z,94186.09
2018-03-20T21:08:48.175Z,94185.66
2018-03-20T21:11:14.797Z,94189.34
2018-03-20T21:13:42.214Z,94197.12
2018-03-20T21:16:08.979Z,94198.50
2018-03-20T21:18:35.595Z,94194.91
2018-03-20T21:21:02.905Z,94197.22
2018-03-20T21:23:30.234Z,94197.92
2018-03-20T21:25:56.822Z,94201.58
2018-03-20T21:28:23.659Z,94197.00
2018-03-20T21:30:50.274Z,94206.00
2018-03-20T21:33:16.884Z,94203.28
2018-03-20T21:35:43.503Z,94204.85
2018-03-20T21:38:10.109Z,94195.97
2018-03-20T21:40:36.634Z,94196.66
2018-03-20T21:43:03.283Z,94208.55
2018-03-20T21:45:30.589Z,94207.47
2018-03-20T21:47:57.169Z,94201.33
2018-03-20T21:50:23.776Z,94199.03
2018-03-20T21:52:50.349Z,94203.06
2018-03-20T21:55:17.087Z,94204.31
2018-03-20T21:57:43.708Z,94207.26
2018-03-20T22:00:10.267Z,94204.97
2018-03-20T22:02:37.557Z,94206.27
2018-03-20T22:05:04.322Z,94203.74
2018-03-20T22:07:30.860Z,94208.19
2018-03-20T22:09:58.216Z,94207.47
2018-03-20T22:12:24.778Z,94213.33
2018-03-20T22:14:52.628Z,94220.47
2018-03-20T22:17:19.171Z,94208.42
2018-03-20T22:19:45.740Z,94214.58
2018-03-20T22:22:12.302Z,94208.20
2018-03-20T22:24:38.882Z,94214.23
2018-03-20T22:27:05.462Z,94213.24
2018-03-20T22:29:32.071Z,94214.09
2018-03-20T22:31:58.948Z,94202.41
2018-03-20T22:34:25.576Z,94212.07
2018-03-20T22:36:52.114Z,94216.42
2018-03-20T22:39:18.714Z,94219.37
2018-03-20T22:41:46.010Z,94221.05
2018-03-20T22:44:12.553Z,94218.41
2018-03-20T22:46:39.088Z,94214.73
2018-03-20T22:49:05.886Z,94213.27
2018-03-20T22:51:33.150Z,94210.13
2018-03-20T22:53:59.728Z,94221.04
2018-03-20T22:56:26.284Z,94212.61
2018-03-20T22:58:52.839Z,94216.17
2018-03-20T23:01:19.354Z,94220.58
2018-03-20T23:03:45.935Z,94221.34
2018-03-20T23:06:12.523Z,94219.69
2018-03-20T23:08:39.787Z,94214.88
2018-03-20T23:11:07.208Z,94223.73
2018-03-20T23:13:33.743Z,94225.38
2018-03-20T23:16:00.279Z,94224.58
2018-03-20T23:18:26.819Z,94228.34
2018-03-20T23:20:54.139Z,94234.14
2018-03-20T23:23:20.696Z,94223.53
2018-03-20T23:25:47.359Z,94229.53
2018-03-20T23:28:13.898Z,94227.30
2018-03-20T23:30:41.285Z,94225.62
2018-03-20T23:33:08.566Z,94222.64
2018-03-20T23:35:35.493Z,94218.48
2018-03-20T23:38:02.770Z,94226.13
2018-03-20T23:40:29.325Z,94231.32
2018-03-20T23:42:55.850Z,94231.39
2018-03-20T23:45:22.375Z,94230.96
2018-03-20T23:47:48.923Z,94229.08
2018-03-20T23:50:16.235Z,94226.11
2018-03-20T23:52:42.851Z,94235.40
2018-03-20T23:55:09.408Z,94228.85
2018-03-20T23:57:36.700Z,94229.23
